createdAt,value
2023-05-10T00:00:10.664Z,100552.25
2023-05-10T00:05:16.516Z,100553.97
2023-05-10T00:10:19.348Z,100546.16
2023-05-10T00:15:22.214Z,100543.56
2023-05-10T00:20:24.978Z,100542.66
2023-05-10T00:25:27.631Z,100550.13
2023-05-10T00:30:30.408Z,100550.16
2023-05-10T00:35:33.313Z,100552.63
2023-05-10T00:40:38.069Z,100555.13
2023-05-10T00:45:45.995Z,100523.41
2023-05-10T00:50:49.090Z,100549.34
2023-05-10T00:55:52.269Z,100543.09
2023-05-10T01:00:58.230Z,100550.84
2023-05-10T01:06:01.021Z,100536.16
2023-05-10T01:11:04.026Z,100540.50
2023-05-10T01:16:07.921Z,100550.13
2023-05-10T01:21:28.927Z,100547.66
2023-05-10T01:26:35.156Z,100541.63
2023-05-10T01:31:58.852Z,100543.53
2023-05-10T01:37:11.943Z,100549.59
2023-05-10T01:42:29.985Z,100536.78
2023-05-10T01:47:39.949Z,100522.88
2023-05-10T01:52:45.865Z,100540.16
2023-05-10T01:57:54.824Z,100533.97
2023-05-10T02:02:58.480Z,100536.47
2023-05-10T02:08:02.684Z,100526.16
2023-05-10T02:13:08.475Z,100538.25
2023-05-10T02:18:12.920Z,100533.13
2023-05-10T02:23:18.492Z,100527.19
2023-05-10T02:28:23.604Z,100543.81
2023-05-10T02:33:28.143Z,100535.06
2023-05-10T02:38:32.452Z,100533.34
2023-05-10T02:43:36.712Z,100520.59
2023-05-10T02:48:39.454Z,100523.28
2023-05-10T02:53:44.910Z,100502.56
2023-05-10T02:58:47.840Z,100511.56
2023-05-10T03:03:50.655Z,100514.41
2023-05-10T03:08:53.411Z,100518.03
2023-05-10T03:14:11.126Z,100517.22
2023-05-10T03:19:29.488Z,100512.88
2023-05-10T03:24:35.384Z,100510.41
2023-05-10T03:29:40.269Z,100519.94
2023-05-10T03:34:46.825Z,100510.56
2023-05-10T03:39:49.483Z,100519.41
2023-05-10T03:44:52.301Z,100511.03
2023-05-10T03:49:55.063Z,100519.06
2023-05-10T03:54:58.740Z,100508.81
2023-05-10T04:00:01.612Z,100510.75
2023-05-10T04:05:09.281Z,100507.34
2023-05-10T04:10:12.690Z,100449.53
2023-05-10T04:15:15.481Z,100492.94
2023-05-10T04:20:18.545Z,100498.13
2023-05-10T04:25:21.340Z,100488.75
2023-05-10T04:30:23.995Z,100495.72
2023-05-10T04:35:27.300Z,100491.38
2023-05-10T04:40:30.097Z,100458.50
2023-05-10T04:45:32.769Z,100465.34
2023-05-10T04:50:35.540Z,100472.97
2023-05-10T04:55:38.279Z,100469.31
2023-05-10T05:00:41.175Z,100463.06
2023-05-10T05:05:45.036Z,100467.78
2023-05-10T05:10:51.257Z,100459.56
2023-05-10T05:15:54.605Z,100455.56
2023-05-10T05:20:57.217Z,100450.84
2023-05-10T05:26:00.162Z,100456.50
2023-05-10T05:31:02.827Z,100445.00
2023-05-10T05:36:07.025Z,100443.88
2023-05-10T05:41:09.901Z,100439.44
2023-05-10T05:46:12.589Z,100432.22
2023-05-10T05:51:15.310Z,100434.69
2023-05-10T05:56:25.058Z,100419.50
2023-05-10T06:01:27.661Z,100432.84
2023-05-10T06:06:30.469Z,100422.28
2023-05-10T06:11:36.027Z,100416.28
2023-05-10T06:16:38.718Z,100418.22
2023-05-10T06:21:41.318Z,100419.59
2023-05-10T06:26:44.233Z,100415.72
2023-05-10T06:31:47.520Z,100411.88
2023-05-10T06:36:50.177Z,100412.44
2023-05-10T06:41:53.231Z,100408.38
2023-05-10T06:46:56.895Z,100403.28
2023-05-10T06:51:59.581Z,100403.88
2023-05-10T06:57:05.790Z,100400.44
2023-05-10T07:02:11.674Z,100402.84
2023-05-10T07:07:15.559Z,100407.81
2023-05-10T07:12:18.597Z,100390.63
2023-05-10T07:17:21.718Z,100398.09
2023-05-10T07:22:24.351Z,100369.13
2023-05-10T07:27:27.072Z,100379.81
2023-05-10T07:32:29.842Z,100368.66
2023-05-10T07:37:32.630Z,100359.00
2023-05-10T07:42:35.338Z,100361.63
2023-05-10T07:47:37.991Z,100363.09
2023-05-10T07:52:40.710Z,100362.44
2023-05-10T07:57:43.751Z,100369.06
2023-05-10T08:02:46.620Z,100351.66
2023-05-10T08:07:49.482Z,100344.78
2023-05-10T08:12:52.469Z,100343.25
2023-05-10T08:17:55.662Z,100341.94
2023-05-10T08:22:58.392Z,100332.72
2023-05-10T08:28:01.099Z,100334.53
2023-05-10T08:33:03.836Z,100323.00
2023-05-10T08:38:06.546Z,100315.97
2023-05-10T08:43:12.228Z,100311.16
2023-05-10T08:48:15.927Z,100327.19
2023-05-10T08:53:20.170Z,100320.56
2023-05-10T08:58:23.037Z,100305.44
2023-05-10T09:03:25.799Z,100291.06
2023-05-10T09:08:28.804Z,100309.34
2023-05-10T09:13:32.382Z,100285.84
2023-05-10T09:18:35.064Z,100291.25
2023-05-10T09:23:37.894Z,100290.44
2023-05-10T09:29:01.123Z,100281.97
2023-05-10T09:34:04.032Z,100278.56
2023-05-10T09:39:06.760Z,100247.94
2023-05-10T09:44:09.441Z,100248.75
2023-05-10T09:49:15.910Z,100260.78
2023-05-10T09:54:19.068Z,100258.38
2023-05-10T09:59:21.729Z,100249.13
2023-05-10T10:04:24.620Z,100230.13
2023-05-10T10:09:27.982Z,100241.63
2023-05-10T10:14:31.369Z,100234.88
2023-05-10T10:19:38.070Z,100235.78
2023-05-10T10:24:41.891Z,100231.94
2023-05-10T10:30:14.916Z,100242.94
2023-05-10T10:35:17.958Z,100232.69
2023-05-10T10:40:29.039Z,100230.78
2023-05-10T10:45:31.713Z,100229.38
2023-05-10T10:50:45.494Z,100212.19
2023-05-10T10:55:49.325Z,100216.41
2023-05-10T11:01:11.426Z,100223.50
2023-05-10T11:06:14.343Z,100206.41
2023-05-10T11:11:17.075Z,100194.31
2023-05-10T11:16:21.795Z,100172.41
2023-05-10T11:21:24.914Z,100198.84
2023-05-10T11:26:32.797Z,100184.94
2023-05-10T11:31:36.476Z,100183.81
2023-05-10T11:36:39.420Z,100174.97
2023-05-10T11:41:43.464Z,100187.59
2023-05-10T11:46:46.177Z,100186.81
2023-05-10T11:51:49.110Z,100184.53
2023-05-10T11:56:51.744Z,100182.34
2023-05-10T12:01:54.594Z,100166.81
2023-05-10T12:06:57.478Z,100161.75
2023-05-10T12:12:00.120Z,100149.56
2023-05-10T12:17:02.844Z,100150.50
2023-05-10T12:22:08.429Z,100149.81
2023-05-10T12:27:11.232Z,100133.47
2023-05-10T12:32:13.867Z,100145.28
2023-05-10T12:37:16.639Z,100138.34
2023-05-10T12:42:19.251Z,100134.50
2023-05-10T12:47:21.911Z,100118.16
2023-05-10T12:52:25.901Z,100145.09
2023-05-10T12:57:28.981Z,100120.31
2023-05-10T13:02:31.698Z,100125.34
2023-05-10T13:07:34.330Z,100125.34
2023-05-10T13:12:37.272Z,100114.16
2023-05-10T13:17:41.903Z,100125.22
2023-05-10T13:22:45.925Z,100128.03
2023-05-10T13:27:48.970Z,100123.78
2023-05-10T13:32:51.939Z,100119.66
2023-05-10T13:37:57.901Z,100110.06
2023-05-10T13:43:03.277Z,100099.66
2023-05-10T13:48:06.301Z,100108.91
2023-05-10T13:53:08.978Z,100097.50
2023-05-10T13:58:11.825Z,100093.34
2023-05-10T14:03:14.522Z,100095.66
2023-05-10T14:08:17.376Z,100103.66
2023-05-10T14:13:19.971Z,100107.59
2023-05-10T14:18:22.886Z,100097.91
2023-05-10T14:23:26.013Z,100094.47
2023-05-10T14:28:28.925Z,100096.72
2023-05-10T14:33:31.636Z,100095.13
2023-05-10T14:38:34.279Z,100089.56
2023-05-10T14:43:37.783Z,100094.25
2023-05-10T14:48:40.863Z,100086.16
2023-05-10T14:53:43.980Z,100082.38
2023-05-10T14:58:46.607Z,100080.91
2023-05-10T15:03:49.442Z,100097.63
2023-05-10T15:08:52.802Z,100097.91
2023-05-10T15:13:55.690Z,100089.00
2023-05-10T15:18:58.478Z,100086.25
2023-05-10T15:24:01.522Z,100081.41
2023-05-10T15:29:04.309Z,100085.31
2023-05-10T15:34:07.318Z,100084.22
2023-05-10T15:39:13.175Z,100079.50
2023-05-10T15:44:15.896Z,100072.84
2023-05-10T15:49:18.641Z,100081.69
2023-05-10T15:54:21.463Z,100085.72
2023-05-10T15:59:24.050Z,100048.38
2023-05-10T16:04:27.254Z,100072.56
2023-05-10T16:09:29.957Z,100078.09
2023-05-10T16:14:32.640Z,100072.97
2023-05-10T16:19:35.356Z,100070.75
2023-05-10T16:24:38.035Z,100075.53
2023-05-10T16:29:40.912Z,100068.66
2023-05-10T16:34:43.614Z,100070.75
2023-05-10T16:39:46.192Z,100077.00
2023-05-10T16:44:48.833Z,100074.47
2023-05-10T16:49:51.502Z,100081.94
2023-05-10T16:54:57.057Z,100050.22
2023-05-10T16:59:59.894Z,100082.09
2023-05-10T17:05:02.873Z,100089.44
2023-05-10T17:10:06.714Z,100081.69
2023-05-10T17:15:10.172Z,100093.34
2023-05-10T17:20:14.003Z,100091.06
2023-05-10T17:25:16.969Z,100092.22
2023-05-10T17:30:26.183Z,100094.03
2023-05-10T17:35:31.504Z,100102.09
2023-05-10T17:40:34.279Z,100105.63
2023-05-10T17:45:37.160Z,100111.84
2023-05-10T17:50:43.223Z,100113.94
2023-05-10T17:55:46.071Z,100119.28
2023-05-10T18:00:48.908Z,100120.31
2023-05-10T18:05:51.912Z,100096.53
2023-05-10T18:10:55.248Z,100121.75
2023-05-10T18:15:57.901Z,100122.00
2023-05-10T18:21:00.937Z,100120.97
2023-05-10T18:26:03.730Z,100119.28
2023-05-10T18:31:06.441Z,100115.22
2023-05-10T18:36:09.145Z,100115.38
2023-05-10T18:41:14.601Z,100103.41
2023-05-10T18:46:17.347Z,100121.59
2023-05-10T18:51:22.287Z,100128.72
2023-05-10T18:56:25.070Z,100118.59
2023-05-10T19:01:27.865Z,100124.66
2023-05-10T19:06:31.449Z,100110.78
2023-05-10T19:11:34.678Z,100120.06
2023-05-10T19:16:37.881Z,100128.66
2023-05-10T19:21:41.052Z,100114.19
2023-05-10T19:26:43.760Z,100131.69
2023-05-10T19:31:46.646Z,100125.03
2023-05-10T19:36:49.519Z,100135.59
2023-05-10T19:41:52.378Z,100128.78
2023-05-10T19:46:55.483Z,100140.91
2023-05-10T19:51:58.199Z,100134.09
2023-05-10T19:57:00.962Z,100131.38
2023-05-10T20:02:03.922Z,100133.03
2023-05-10T20:07:06.650Z,100140.78
2023-05-10T20:12:09.354Z,100130.34
2023-05-10T20:17:12.104Z,100132.94
2023-05-10T20:22:14.837Z,100129.59
2023-05-10T20:27:17.790Z,100116.66
2023-05-10T20:32:20.414Z,100123.44
2023-05-10T20:37:23.755Z,100120.00
2023-05-10T20:42:26.696Z,100121.09
2023-05-10T20:47:29.857Z,100124.56
2023-05-10T20:52:32.772Z,100126.53
2023-05-10T20:57:36.660Z,100120.44
2023-05-10T21:02:41.869Z,100126.56
2023-05-10T21:07:44.632Z,100122.31
2023-05-10T21:12:47.372Z,100122.44
2023-05-10T21:17:50.135Z,100127.66
2023-05-10T21:22:52.952Z,100108.72
2023-05-10T21:27:55.572Z,100105.28
2023-05-10T21:32:59.990Z,100104.38
2023-05-10T21:38:02.767Z,100111.41
2023-05-10T21:43:06.178Z,100121.06
2023-05-10T21:48:08.896Z,100121.97
2023-05-10T21:53:11.966Z,100116.84
2023-05-10T21:58:14.615Z,100128.94
2023-05-10T22:03:18.226Z,100133.31
2023-05-10T22:08:21.069Z,100119.63
2023-05-10T22:13:23.697Z,100124.75
2023-05-10T22:18:26.417Z,100137.75
2023-05-10T22:23:29.133Z,100133.41
2023-05-10T22:28:32.039Z,100133.34
2023-05-10T22:33:34.707Z,100124.75
2023-05-10T22:38:37.707Z,100134.28
2023-05-10T22:43:40.305Z,100131.81
2023-05-10T22:48:43.849Z,100129.19
2023-05-10T22:53:46.569Z,100134.41
2023-05-10T22:58:50.469Z,100139.59
2023-05-10T23:03:53.110Z,100137.84
2023-05-10T23:08:55.824Z,100142.13
2023-05-10T23:13:58.822Z,100147.41
2023-05-10T23:19:01.488Z,100148.34
2023-05-10T23:24:04.629Z,100145.75
2023-05-10T23:29:07.375Z,100145.66
2023-05-10T23:34:10.435Z,100151.63
2023-05-10T23:39:13.598Z,100153.25
2023-05-10T23:44:16.766Z,100148.88
2023-05-10T23:49:19.635Z,100132.47
2023-05-10T23:54:23.012Z,100135.09
2023-05-10T23:59:25.753Z,100154.94
